Latest Weather Observations for Nuriootpa

IDS60901

Issued at 7:05 pm CST Wednesday 23 April 2014 (issued every 10 minutes, with the page automatically refreshed every 10 minutes)

About weather observations | Map of Adelaide area stations | Latest observations for Adelaide area | Other Formats
Station Details ID: 023373 Name: NURIOOTPA VITICULTURAL Lat: -34.48 Lon: 139.01 Height: 275.0 m
Data from the previous 72 hours. | See also: Recent months at Nuriootpa
Date/Time
CST
Tmp

°C
App
Tmp
°C
Dew
Point
°C
Rel
Hum
%
Delta-T

°C
Wind Press
QNH
hPa
Press
MSL
hPa
Rain
since
9 am
mm
Dir
 
Spd
km/h
Gust
km/h
Spd
kts
Gust
kts
23/07:00pm 9.7 8.7 5.6 75 1.9 SSW 0 0 0 0 1016.0 - 0.0
23/06:30pm 11.8 9.5 5.9 67 2.8 WSW 7 11 4 6 1015.8 1015.4 0.0
23/06:00pm 13.8 11.4 5.4 57 4.0 WSW 7 9 4 5 1015.4 1015.0 0.0
23/05:30pm 16.0 13.1 4.7 47 5.4 WSW 9 15 5 8 1015.3 1014.9 0.0
23/05:00pm 17.1 14.0 3.8 41 6.3 WSW 9 13 5 7 1015.0 - 0.0
23/04:30pm 18.0 14.5 3.4 38 6.9 WSW 11 15 6 8 1014.8 1014.4 0.0
23/04:00pm 19.0 15.1 3.5 35 7.4 WSW 13 19 7 10 1015.0 - 0.0
23/03:30pm 19.1 15.5 2.7 33 7.7 SW 11 17 6 9 1015.0 1014.6 0.0
23/03:00pm 19.3 15.7 2.7 33 7.8 SW 11 19 6 10 1014.9 1014.5 0.0
23/02:30pm 19.8 16.0 2.0 30 8.3 W 11 20 6 11 1014.8 1014.4 0.0
23/02:00pm 19.4 15.5 0.9 29 8.4 SW 11 19 6 10 1015.2 - 0.0
23/01:30pm 19.7 15.6 2.1 31 8.2 WSW 13 19 7 10 1015.4 1015.0 0.0
23/01:00pm 19.4 16.5 4.4 37 7.3 SW 9 15 5 8 1016.0 - 0.0
23/12:30pm 18.7 15.7 3.9 37 7.1 WNW 9 15 5 8 1016.5 1016.1 0.0
23/12:00pm 18.3 15.7 4.1 39 6.8 NNE 7 13 4 7 1017.0 1016.6 0.0
23/11:30am 17.5 14.8 3.8 40 6.5 W 7 13 4 7 1017.4 1017.0 0.0
23/11:00am 17.4 16.1 5.8 46 5.7 WNW 2 9 1 5 1017.9 - 0.0
23/10:30am 16.1 13.2 4.8 47 5.4 N 9 13 5 7 1018.4 1018.0 0.0
23/10:00am 15.0 11.9 5.4 52 4.6 NNE 11 17 6 9 1018.6 - 0.0
23/09:30am 14.0 11.8 8.0 67 3.0 NE 9 11 5 6 1018.7 1018.3 0.0
23/09:00am 12.6 11.2 9.7 82 1.5 NE 7 11 4 6 1018.6 1018.2 0.0
23/08:30am 10.6 9.1 9.0 90 0.8 NE 7 11 4 6 1018.5 1018.1 0.0
23/08:00am 8.2 7.1 6.9 91 0.6 NE 2 7 1 4 1018.8 - 0.0
23/07:30am 6.1 3.8 5.7 97 0.2 NE 7 9 4 5 1018.5 1018.1 0.0
23/07:00am 3.9 2.1 3.4 97 0.2 NE 2 7 1 4 1018.2 - 0.0
23/06:30am 4.1 1.0 3.6 97 0.2 NE 9 11 5 6 1017.7 1017.3 0.0
23/06:00am 3.6 2.1 2.9 95 0.3 CALM 0 0 0 0 1017.8 1017.5 0.0
23/05:30am 4.2 2.4 3.5 95 0.3 NNE 2 7 1 4 1017.8 1017.5 0.0
23/05:00am 4.0 2.6 3.5 97 0.2 NNE 0 0 0 0 1017.9 - 0.0
23/04:30am 5.4 2.9 4.9 97 0.2 NE 7 9 4 5 1017.8 1017.5 0.0
23/04:00am 6.4 3.4 6.0 97 0.2 NNE 11 13 6 7 1017.8 - 0.0
23/03:30am 6.3 3.2 5.6 95 0.3 NNE 11 13 6 7 1017.8 1017.5 0.0
23/03:00am 5.9 3.1 5.2 95 0.3 NE 9 13 5 7 1018.2 1017.8 0.0
23/02:30am 5.1 3.9 4.4 95 0.3 CALM 0 2 0 1 1018.3 1017.9 0.0
23/02:00am 5.6 4.4 4.7 94 0.4 CALM 0 7 0 4 1018.3 - 0.0
23/01:30am 6.1 4.9 4.7 91 0.6 CALM 0 7 0 4 1018.5 1018.1 0.0
23/01:00am 7.6 6.6 5.6 87 0.9 CALM 0 0 0 0 1018.7 - 0.0
23/12:30am 8.4 6.1 5.8 84 1.2 NW 7 9 4 5 1018.8 1018.4 0.0
23/12:00am 8.4 6.3 5.8 84 1.2 SW 6 7 3 4 1018.8 1018.4 0.0
 
Date/Time
CST
Tmp

°C
App
Tmp
°C
Dew
Point
°C
Rel
Hum
%
Delta-T

°C
Wind Press
QNH
hPa
Press
MSL
hPa
Rain
since
9 am
mm
Dir
 
Spd
km/h
Gust
km/h
Spd
kts
Gust
kts
22/11:30pm 10.6 8.4 6.1 74 2.1 SSE 7 11 4 6 1019.0 1018.6 0.0
22/11:00pm 10.5 8.6 4.8 68 2.6 SE 4 15 2 8 1018.8 - 0.0
22/10:30pm 10.7 8.9 5.3 69 2.5 SSE 4 9 2 5 1018.9 1018.5 0.0
22/10:00pm 11.5 9.8 5.8 68 2.7 ESE 4 7 2 4 1019.0 - 0.0
22/09:30pm 12.1 9.9 6.0 66 2.9 S 7 13 4 7 1019.3 1018.9 0.0
22/09:00pm 12.6 10.2 6.8 68 2.8 SE 9 17 5 9 1019.1 1018.7 0.0
22/08:30pm 12.7 10.8 7.4 70 2.6 SSE 7 11 4 6 1019.2 1018.8 0.0
22/08:00pm 13.0 11.2 8.0 71 2.5 S 7 9 4 5 1019.2 - 0.0
22/07:30pm 13.3 11.2 8.3 72 2.5 SE 9 13 5 7 1019.0 1018.6 0.0
22/07:00pm 14.0 11.4 7.8 66 3.1 SE 11 17 6 9 1018.9 - 0.0
22/06:30pm 14.8 11.9 8.1 64 3.4 SSE 13 19 7 10 1018.5 1018.1 0.0
22/06:00pm 15.6 14.3 9.3 66 3.3 S 6 11 3 6 1018.1 1017.7 0.0
22/05:30pm 15.9 12.5 9.2 64 3.5 S 17 30 9 16 1017.8 1017.5 0.0
22/05:00pm 16.4 13.4 9.1 62 3.8 SW 15 24 8 13 1017.4 - 0.0
22/04:30pm 17.2 13.4 9.0 58 4.3 WSW 19 28 10 15 1017.0 1016.6 0.0
22/04:00pm 18.6 15.1 8.9 53 5.1 W 17 24 9 13 1016.9 - 0.0
22/03:30pm 17.9 15.1 10.1 60 4.2 WSW 15 19 8 10 1016.9 1016.5 0.0
22/03:00pm 18.1 14.8 9.7 58 4.5 WSW 17 26 9 14 1016.7 1016.3 0.0
22/02:30pm 18.6 15.0 8.2 50 5.4 SW 17 24 9 13 1016.6 1016.2 0.0
22/02:00pm 19.5 16.2 8.2 48 5.9 WSW 15 24 8 13 1016.5 - 0.0
22/01:30pm 20.1 17.4 8.8 48 6.0 SW 13 20 7 11 1016.3 1015.9 0.0
22/01:00pm 19.8 16.7 8.9 49 5.8 WSW 15 22 8 12 1016.5 - 0.0
22/12:30pm 19.6 17.3 10.5 55 5.0 WSW 13 20 7 11 1016.8 1016.4 0.0
22/12:00pm 19.4 16.3 10.4 56 4.9 WSW 17 26 9 14 1016.9 1016.5 0.0
22/11:30am 18.5 16.5 11.5 63 3.9 SW 13 22 7 12 1017.2 1016.8 0.0
22/11:00am 17.8 15.7 12.5 71 3.0 SW 15 22 8 12 1017.3 - 0.0
22/10:30am 17.1 15.5 12.8 76 2.4 SW 13 19 7 10 1017.3 1016.9 0.0
22/10:00am 16.7 15.6 13.0 79 2.1 SSW 11 17 6 9 1017.1 - 0.0
22/09:30am 16.1 14.0 12.3 78 2.1 SW 15 20 8 11 1017.2 1016.8 0.0
22/09:00am 15.2 14.3 12.7 85 1.4 SW 9 11 5 6 1016.9 1016.5 0.0
22/08:30am 14.6 14.0 12.4 87 1.2 S 7 9 4 5 1016.6 1016.2 0.0
22/08:00am 13.6 14.2 11.9 89 0.9 CALM 0 0 0 0 1016.4 - 0.0
22/07:30am 12.4 12.0 11.1 92 0.7 E 4 9 2 5 1016.1 1015.7 0.0
22/07:00am 10.9 9.4 9.3 90 0.8 E 7 11 4 6 1015.6 - 0.0
22/06:30am 10.7 10.1 8.9 89 0.9 ENE 2 6 1 3 1015.2 1014.8 0.0
22/06:00am 11.9 10.4 9.1 83 1.4 WSW 7 11 4 6 1014.9 1014.5 0.0
22/05:30am 12.1 11.7 8.3 77 1.9 CALM 0 0 0 0 1014.3 1013.8 0.0
22/05:00am 12.5 11.8 8.5 76 2.0 E 2 7 1 4 1013.7 - 0.0
22/04:30am 13.8 12.2 8.0 68 2.9 SSE 6 7 3 4 1013.6 1013.2 0.0
22/04:00am 13.0 10.3 7.3 68 2.8 NNE 11 15 6 8 1013.1 - 0.0
22/03:30am 12.6 9.9 7.5 71 2.5 NNE 11 15 6 8 1012.5 1012.1 0.0
22/03:00am 11.2 9.6 8.2 82 1.5 E 6 7 3 4 1012.9 1012.5 0.0
22/02:30am 12.3 11.9 8.1 75 2.1 CALM 0 0 0 0 1013.2 1012.8 0.0
22/02:00am 14.5 12.2 7.3 62 3.6 SSW 9 11 5 6 1013.2 - 0.0
22/01:30am 14.5 12.9 8.0 65 3.3 SW 6 9 3 5 1013.2 1012.8 0.0
22/01:00am 18.2 15.7 6.5 46 5.9 WSW 9 13 5 7 1013.3 - 0.0
22/12:30am 19.0 15.6 5.8 42 6.6 W 13 20 7 11 1013.3 1012.9 0.0
22/12:00am 20.1 16.7 5.8 39 7.2 WSW 13 26 7 14 1013.3 1012.9 0.0
 
Date/Time
CST
Tmp

°C
App
Tmp
°C
Dew
Point
°C
Rel
Hum
%
Delta-T

°C
Wind Press
QNH
hPa
Press
MSL
hPa
Rain
since
9 am
mm
Dir
 
Spd
km/h
Gust
km/h
Spd
kts
Gust
kts
21/11:30pm 21.6 16.6 4.4 32 8.5 NNW 20 37 11 20 1012.6 1012.2 0.0
21/11:00pm 21.8 16.8 4.5 32 8.6 NNW 20 32 11 17 1012.7 - 0.0
21/10:30pm 21.9 16.9 4.6 32 8.6 NNW 20 33 11 18 1012.7 1012.3 0.0
21/10:00pm 19.4 16.1 6.6 43 6.5 N 13 19 7 10 1012.9 - 0.0
21/09:30pm 19.3 16.6 7.2 45 6.2 N 11 17 6 9 1013.1 1012.7 0.0
21/09:00pm 19.5 16.7 7.0 44 6.4 N 11 15 6 8 1013.1 1012.7 0.0
21/08:30pm 18.9 16.3 7.9 49 5.7 N 11 13 6 7 1013.1 1012.7 0.0
21/08:00pm 19.5 17.0 8.0 47 6.0 N 11 17 6 9 1013.1 - 0.0
21/07:30pm 19.5 17.0 8.3 48 5.9 N 11 13 6 7 1013.1 1012.7 0.0
21/07:00pm 20.0 17.5 8.2 46 6.2 N 11 17 6 9 1013.2 - 0.0
21/06:30pm 21.0 18.5 8.1 43 6.8 N 11 17 6 9 1013.1 1012.7 0.0
21/06:00pm 22.5 19.7 7.0 36 8.1 N 11 17 6 9 1012.9 1012.5 0.0
21/05:30pm 23.7 20.0 6.1 32 9.1 NW 15 22 8 12 1012.8 1012.4 0.0
21/05:00pm 24.2 20.1 6.1 31 9.4 NW 17 24 9 13 1012.8 - 0.0
21/04:30pm 24.8 20.1 5.9 29 9.8 NW 20 35 11 19 1012.7 1012.3 0.0
21/04:00pm 25.5 20.4 6.0 28 10.2 NW 22 37 12 20 1012.8 - 0.0
21/03:30pm 26.2 20.6 5.4 26 10.8 WNW 24 39 13 21 1012.8 1012.4 0.0
21/03:00pm 26.2 18.8 4.1 24 11.2 WNW 32 48 17 26 1012.8 1012.4 0.0
21/02:30pm 26.2 20.0 4.1 24 11.2 WNW 26 44 14 24 1012.9 1012.5 0.0
21/02:00pm 26.2 19.6 4.1 24 11.2 NW 28 46 15 25 1013.1 - 0.0
21/01:30pm 26.3 18.3 3.7 23 11.4 WNW 35 56 19 30 1013.4 1013.0 0.0
21/01:00pm 26.0 18.7 4.4 25 11.0 WNW 32 56 17 30 1013.6 - 0.0
21/12:42pm 25.9 19.5 5.4 27 10.6 NW 28 46 15 25 1013.8 - 0.0
21/12:30pm 26.0 20.1 5.6 27 10.6 NW 26 39 14 21 1014.0 1013.6 0.0
21/12:03pm 25.8 19.5 5.6 27 10.5 NW 28 46 15 25 1014.6 - 0.0
21/12:00pm 25.6 18.6 5.8 28 10.3 NW 32 46 17 25 1014.7 1014.3 0.0
21/11:31am 25.5 18.7 5.3 27 10.4 WNW 30 48 16 26 1014.9 - 0.0
21/11:30am 25.5 18.4 5.6 28 10.3 WNW 32 48 17 26 1015.0 1014.6 0.0
21/11:00am 25.2 19.1 6.6 30 9.8 NW 28 46 15 25 1015.2 - 0.0
21/10:38am 24.4 18.1 5.8 30 9.6 NW 28 48 15 26 1015.4 - 0.0
21/10:30am 24.1 17.8 5.9 31 9.4 NW 28 41 15 22 1015.4 1015.0 0.0
21/10:21am 23.9 17.6 5.6 30 9.4 NW 28 46 15 25 1015.5 - 0.0
21/10:00am 23.3 17.9 6.3 33 8.8 NNW 24 43 13 23 1015.5 - 0.0
21/09:30am 22.0 18.0 6.5 36 8.0 NNW 17 28 9 15 1015.7 1015.3 0.0
21/09:00am 20.2 17.2 7.7 44 6.5 N 13 19 7 10 1015.8 1015.4 0.0
21/08:30am 17.8 14.7 7.4 50 5.3 N 13 17 7 9 1015.9 1015.5 0.0
21/08:00am 16.5 13.3 6.7 52 4.9 N 13 20 7 11 1015.8 - 0.0
21/07:30am 16.1 12.8 6.4 52 4.8 NNE 13 22 7 12 1015.7 1015.3 0.0
21/07:00am 15.9 12.9 6.1 52 4.8 NE 11 17 6 9 1015.7 - 0.0
21/06:30am 15.5 12.6 6.4 54 4.5 NNE 11 17 6 9 1015.5 1015.1 0.0
21/06:00am 16.0 11.8 5.8 50 5.0 NE 17 26 9 14 1015.5 1015.1 0.0
21/05:30am 15.8 11.6 5.7 51 4.9 NNE 17 24 9 13 1015.6 1015.2 0.0
21/05:00am 16.1 11.8 5.4 49 5.2 NNE 17 26 9 14 1015.7 - 0.0
21/04:30am 15.6 11.0 5.7 51 4.8 NNE 19 26 10 14 1015.9 1015.5 0.0
21/04:00am 15.4 11.6 5.7 52 4.7 NNE 15 22 8 12 1016.1 - 0.0
21/03:30am 15.7 11.5 5.6 51 4.9 NNE 17 26 9 14 1016.3 1015.9 0.0
21/03:00am 14.8 12.2 6.2 56 4.2 NE 9 19 5 10 1016.3 1015.9 0.0
21/02:30am 14.5 11.6 6.5 58 3.9 NE 11 15 6 8 1016.8 1016.4 0.0
21/02:00am 14.4 12.0 6.9 60 3.7 NE 9 13 5 7 1017.1 - 0.0
21/01:30am 13.9 11.1 7.0 63 3.4 NE 11 17 6 9 1017.1 1016.7 0.0
21/01:00am 14.1 11.0 7.2 63 3.4 NE 13 19 7 10 1017.4 - 0.0
21/12:30am 13.8 11.6 7.8 67 3.0 NE 9 13 5 7 1017.6 1017.2 0.0
21/12:00am 13.3 11.6 8.3 72 2.5 NE 7 9 4 5 1017.8 1017.5 0.0
 
Date/Time
CST
Tmp

°C
App
Tmp
°C
Dew
Point
°C
Rel
Hum
%
Delta-T

°C
Wind Press
QNH
hPa
Press
MSL
hPa
Rain
since
9 am
mm
Dir
 
Spd
km/h
Gust
km/h
Spd
kts
Gust
kts
20/11:30pm 13.7 11.2 8.1 69 2.8 NNE 11 17 6 9 1018.2 1017.8 0.0
20/11:00pm 12.4 9.9 8.4 76 2.0 NE 11 13 6 7 1018.4 - 0.0
20/10:30pm 11.5 9.9 8.9 84 1.3 ENE 7 9 4 5 1018.8 1018.4 0.0
20/10:00pm 11.7 10.2 9.1 84 1.3 NE 7 9 4 5 1019.1 - 0.0
20/09:30pm 12.1 10.3 9.4 83 1.4 NE 9 13 5 7 1019.0 1018.6 0.0
20/09:00pm 11.7 11.0 10.2 90 0.8 E 4 7 2 4 1018.8 1018.4 0.0
20/08:30pm 12.3 12.5 10.4 88 1.0 CALM 0 0 0 0 1018.8 1018.4 0.0
20/08:00pm 13.5 12.6 10.5 82 1.6 NE 6 7 3 4 1018.8 - 0.0
20/07:30pm 13.3 12.5 10.9 85 1.3 E 6 7 3 4 1019.0 1018.6 0.0

Latest Capital City Observations: Canberra | Sydney | Melbourne | Brisbane | Adelaide | Perth | Hobart | Darwin

Other Formats:

Comma delimited format used in spreadsheet applications
http://www.bom.gov.au/fwo/IDS60901/IDS60901.94681.axf

JavaScript Object Notation format (JSON) in row-major order
http://www.bom.gov.au/fwo/IDS60901/IDS60901.94681.json